Indian Creek, Iowa
Current Conditions -  °F | °C
As of 8:52 PM on Monday 20 Oct 2014 (Local Time) from KCID Reporting Station
Clear Clear  
Wind Chill: 50°   Ceiling: Unl
Heat Index: 50°   Visibility: 10mi
Dew Point: 41°   Wind: 5mph
Humidity: 71%   Direction: NA
Pressure: 30"   Gusts: NA
Location:  42.0672°N, 91.5782°W
Report Text: KCID 210152Z VRB04KT 10SM CLR 10/05 A3000 RMK AO2 SLP161 T01000050
Loading
Personal Weather Stations






























Interactive Weather Map
Tropical Storm Tracking
New forecast layout! Learn more

10-Day Weather Forecast

Advertisements
Track Severe Weather on mobile